createdAt,value
2022-08-30T06:16:27.175Z,19.67
2022-08-30T06:18:55.931Z,18.02
2022-08-30T06:21:29.341Z,19.02
2022-08-30T06:23:58.128Z,16.83
2022-08-30T06:26:27.252Z,16.73
2022-08-30T06:28:56.015Z,15.80
2022-08-30T06:31:25.185Z,15.23
2022-08-30T06:33:53.672Z,14.25
2022-08-30T06:36:23.425Z,13.77
2022-08-30T06:38:52.446Z,10.93
2022-08-30T06:41:45.846Z,10.43
2022-08-30T06:44:27.964Z,10.82
2022-08-30T06:46:57.705Z,9.15
2022-08-30T06:49:25.234Z,8.48
2022-08-30T06:51:53.855Z,8.27
2022-08-30T08:31:17.269Z,13.07
2022-08-30T08:33:45.419Z,15.27
2022-08-30T08:36:13.127Z,13.73
2022-08-30T08:38:40.866Z,16.42
2022-08-30T08:41:30.621Z,14.00
2022-08-30T08:43:58.875Z,13.23
2022-08-30T08:47:00.278Z,13.95
2022-08-30T08:49:28.552Z,14.93
2022-08-30T08:52:14.598Z,16.30
2022-08-30T08:55:13.460Z,15.23
2022-08-30T08:57:47.905Z,15.48
2022-08-30T09:00:21.146Z,15.43
2022-08-30T09:02:57.593Z,13.30
2022-08-30T09:05:29.461Z,16.98
2022-08-30T09:08:09.194Z,15.32
2022-08-30T09:10:50.489Z,17.03
2022-08-30T10:34:45.588Z,15.00
2022-08-30T10:37:27.207Z,17.02
2022-08-30T10:40:24.418Z,18.42
2022-08-30T10:42:56.287Z,18.48
2022-08-30T10:45:27.249Z,19.70
2022-08-30T10:48:07.168Z,18.15
2022-08-30T10:50:48.600Z,17.85
2022-08-30T10:53:22.780Z,19.08
2022-08-30T10:55:55.996Z,18.95
2022-08-30T10:58:23.872Z,20.42
2022-08-30T11:01:28.461Z,17.65
2022-08-30T11:04:14.192Z,19.35
2022-08-30T11:06:47.977Z,17.50
2022-08-30T11:09:47.829Z,19.40
2022-08-30T11:12:27.151Z,18.38
2022-08-30T11:14:55.481Z,18.95
2022-08-30T11:17:40.681Z,19.55
2022-08-30T11:29:31.792Z,17.60
2022-08-30T11:32:19.539Z,18.73
2022-08-30T11:34:46.960Z,19.33
2022-08-30T11:37:38.584Z,16.67
2022-08-30T11:40:14.243Z,15.60
2022-08-30T11:42:48.056Z,17.63
